createdAt,value
2023-01-21T00:02:13.705Z,11.73
2023-01-21T00:04:42.179Z,11.47
2023-01-21T00:07:10.906Z,12.13
2023-01-21T00:09:39.252Z,13.07
2023-01-21T00:12:09.539Z,12.27
2023-01-21T00:14:38.357Z,11.43
2023-01-21T00:17:07.169Z,11.83
2023-01-21T00:19:35.633Z,9.93
2023-01-21T00:22:04.299Z,10.60
2023-01-21T00:24:32.744Z,12.10
2023-01-21T00:27:01.385Z,12.10
2023-01-21T00:29:31.318Z,10.93
2023-01-21T00:32:00.087Z,9.53
2023-01-21T00:34:28.509Z,10.47
2023-01-21T00:36:57.319Z,11.80
2023-01-21T00:39:25.702Z,11.47
2023-01-21T00:41:54.521Z,11.67
2023-01-21T00:44:22.949Z,10.47
2023-01-21T00:46:53.032Z,12.47
2023-01-21T00:49:21.479Z,11.73
2023-01-21T00:51:50.111Z,11.87
2023-01-21T00:54:18.499Z,10.70
2023-01-21T00:56:47.204Z,10.53
2023-01-21T00:59:15.613Z,10.17
2023-01-21T01:01:44.564Z,8.50
2023-01-21T01:04:14.529Z,11.00
2023-01-21T01:06:43.479Z,12.37
2023-01-21T01:09:12.935Z,10.90
2023-01-21T01:11:41.655Z,10.30
2023-01-21T01:14:10.236Z,13.30
2023-01-21T01:16:38.848Z,11.57
2023-01-21T01:19:07.261Z,11.57
2023-01-21T01:21:37.472Z,11.73
2023-01-21T01:24:06.637Z,11.10
2023-01-21T01:26:36.456Z,10.50
2023-01-21T01:29:05.746Z,9.90
2023-01-21T01:31:34.823Z,12.33
2023-01-21T01:34:03.331Z,8.83
2023-01-21T01:36:31.970Z,11.83
2023-01-21T01:39:02.236Z,13.23
2023-01-21T01:41:34.970Z,12.63
2023-01-21T01:44:05.706Z,12.40
2023-01-21T01:46:36.384Z,12.03
2023-01-21T01:49:11.888Z,9.77
2023-01-21T01:51:47.078Z,13.53
2023-01-21T01:54:20.962Z,10.60
2023-01-21T01:56:54.503Z,11.03
2023-01-21T01:59:23.197Z,12.70
2023-01-21T02:01:52.424Z,11.83
2023-01-21T02:04:24.253Z,11.87
2023-01-21T02:06:55.650Z,12.10
2023-01-21T02:09:29.731Z,13.60
2023-01-21T02:11:59.453Z,10.63
2023-01-21T02:14:28.318Z,12.87
2023-01-21T02:17:10.430Z,13.53
2023-01-21T02:20:12.351Z,12.63
2023-01-21T02:22:50.226Z,13.67
2023-01-21T02:25:48.391Z,12.87
2023-01-21T02:28:57.989Z,11.33
2023-01-21T02:32:00.642Z,12.47
2023-01-21T02:34:39.744Z,11.90
2023-01-21T02:37:13.667Z,11.93
2023-01-21T02:40:00.688Z,12.13
2023-01-21T02:42:34.356Z,9.80
2023-01-21T02:45:10.623Z,12.57
2023-01-21T02:47:45.299Z,12.33
2023-01-21T02:50:19.732Z,10.20
2023-01-21T02:52:56.443Z,12.27
2023-01-21T02:55:29.967Z,10.53
2023-01-21T02:58:00.343Z,11.70
2023-01-21T03:00:37.409Z,11.60
2023-01-21T03:03:41.246Z,11.50
2023-01-21T03:06:34.778Z,11.53
2023-01-21T03:09:07.920Z,11.27
2023-01-21T03:11:37.171Z,12.60
2023-01-21T03:14:27.501Z,10.63
2023-01-21T03:17:02.742Z,10.07
2023-01-21T03:19:40.331Z,11.00
2023-01-21T03:22:15.105Z,12.13
2023-01-21T03:24:46.759Z,10.33
2023-01-21T03:27:20.054Z,10.03
2023-01-21T03:29:50.899Z,11.13
2023-01-21T03:32:22.520Z,11.03
2023-01-21T03:34:55.257Z,10.53
2023-01-21T03:37:32.544Z,9.30
2023-01-21T03:40:12.299Z,9.97
2023-01-21T03:42:41.122Z,9.70
2023-01-21T03:45:11.080Z,11.47
2023-01-21T03:47:43.128Z,11.00
2023-01-21T03:50:17.020Z,11.00
2023-01-21T03:52:47.804Z,11.30
2023-01-21T03:55:17.920Z,9.50
2023-01-21T03:57:46.575Z,10.67
2023-01-21T04:00:16.031Z,10.87
2023-01-21T04:02:45.520Z,11.13
2023-01-21T04:05:14.338Z,13.00
2023-01-21T04:07:43.081Z,11.73
2023-01-21T04:10:13.338Z,9.60
2023-01-21T04:12:41.988Z,9.60
2023-01-21T04:15:11.630Z,9.80
2023-01-21T04:17:40.617Z,11.50
2023-01-21T04:20:10.422Z,10.50
2023-01-21T04:22:39.436Z,10.60
2023-01-21T04:25:08.130Z,9.87
2023-01-21T04:27:38.200Z,9.53
2023-01-21T04:30:07.893Z,12.23
2023-01-21T04:32:37.458Z,8.50
2023-01-21T04:35:06.828Z,9.63
2023-01-21T04:37:35.922Z,10.27
2023-01-21T04:40:04.703Z,8.57
2023-01-21T04:42:33.412Z,9.80
2023-01-21T04:45:03.196Z,10.37
2023-01-21T04:47:32.241Z,9.93
2023-01-21T04:50:00.620Z,9.23
2023-01-21T04:52:29.605Z,10.80
2023-01-21T04:54:58.245Z,9.70
2023-01-21T04:57:26.955Z,9.80
2023-01-21T04:59:55.461Z,8.90
2023-01-21T05:02:25.605Z,9.57
2023-01-21T05:04:54.160Z,9.33
2023-01-21T05:07:22.842Z,9.53
2023-01-21T05:09:51.728Z,8.73
2023-01-21T05:12:20.812Z,9.67
2023-01-21T05:14:49.230Z,9.67
2023-01-21T05:17:18.145Z,11.27
2023-01-21T05:19:48.087Z,10.43
2023-01-21T05:22:16.732Z,11.10
2023-01-21T05:24:45.282Z,8.90
2023-01-21T05:27:13.918Z,10.13
2023-01-21T05:29:42.299Z,8.83
2023-01-21T05:32:11.477Z,9.07
2023-01-21T05:34:39.904Z,10.03
2023-01-21T05:37:10.784Z,10.00
2023-01-21T05:39:39.221Z,10.93
2023-01-21T05:42:07.972Z,8.50
2023-01-21T05:44:36.387Z,10.50
2023-01-21T05:47:05.089Z,8.40
2023-01-21T05:49:33.426Z,9.97
2023-01-21T05:52:02.286Z,8.53
2023-01-21T05:54:32.001Z,8.77
2023-01-21T05:57:00.730Z,9.30
2023-01-21T05:59:29.093Z,8.87
2023-01-21T06:01:57.751Z,9.53
2023-01-21T06:04:30.546Z,9.20
2023-01-21T06:06:59.490Z,8.77
2023-01-21T06:09:27.894Z,8.17
2023-01-21T06:11:57.923Z,8.23
2023-01-21T06:14:26.501Z,7.97
2023-01-21T06:16:55.144Z,9.17
2023-01-21T06:19:23.522Z,8.07
2023-01-21T06:21:53.953Z,8.23
2023-01-21T06:24:22.422Z,8.80
2023-01-21T06:26:51.105Z,8.70
2023-01-21T06:29:20.974Z,8.63
2023-01-21T06:31:49.897Z,7.20
2023-01-21T06:34:18.365Z,7.37
2023-01-21T06:36:47.277Z,8.27
2023-01-21T06:39:15.736Z,7.10
2023-01-21T06:41:44.119Z,7.40
2023-01-21T06:44:12.811Z,7.47
2023-01-21T06:46:45.928Z,6.03
2023-01-21T06:49:20.886Z,7.03
2023-01-21T06:51:50.391Z,7.63
2023-01-21T06:54:19.021Z,7.07
2023-01-21T06:56:47.698Z,7.10
2023-01-21T06:59:17.052Z,8.20
2023-01-21T07:01:47.095Z,7.27
2023-01-21T07:04:15.802Z,8.63
2023-01-21T07:06:44.177Z,8.43
2023-01-21T07:09:12.854Z,8.43
2023-01-21T07:11:41.217Z,7.93
2023-01-21T07:14:10.598Z,8.43
2023-01-21T07:16:39.527Z,6.97
2023-01-21T07:19:09.590Z,7.13
2023-01-21T07:21:41.253Z,7.43
2023-01-21T07:24:10.445Z,8.10
2023-01-21T07:26:38.886Z,6.47
2023-01-21T07:29:08.613Z,7.73
2023-01-21T07:31:37.146Z,7.63
2023-01-21T07:34:06.063Z,8.40
2023-01-21T07:36:36.044Z,7.33
2023-01-21T07:39:04.999Z,6.83
2023-01-21T07:41:33.467Z,7.00
2023-01-21T07:44:02.183Z,6.90
2023-01-21T07:46:31.864Z,7.07
2023-01-21T07:49:00.606Z,7.30
2023-01-21T07:51:29.082Z,7.63
2023-01-21T07:53:59.397Z,6.83
2023-01-21T07:56:27.889Z,6.80
2023-01-21T07:58:57.045Z,6.73
2023-01-21T08:01:28.833Z,6.30
2023-01-21T08:03:57.595Z,6.57
2023-01-21T08:06:26.299Z,6.30
2023-01-21T08:08:55.254Z,6.97
2023-01-21T08:11:25.534Z,6.53
2023-01-21T08:13:54.194Z,6.90
2023-01-21T08:16:22.763Z,6.93
2023-01-21T08:18:51.560Z,6.70
2023-01-21T08:21:20.986Z,5.30
2023-01-21T08:23:50.016Z,5.87
2023-01-21T08:26:18.465Z,5.07
2023-01-21T08:28:48.455Z,6.33
2023-01-21T08:31:17.222Z,6.13
2023-01-21T08:33:45.985Z,5.63
2023-01-21T08:36:15.599Z,6.37
2023-01-21T08:38:47.711Z,6.20
2023-01-21T08:41:17.813Z,5.00
2023-01-21T08:43:47.852Z,5.87
2023-01-21T08:46:16.287Z,6.10
2023-01-21T08:48:44.990Z,5.17
2023-01-21T08:51:13.528Z,5.80
2023-01-21T08:53:42.293Z,5.03
2023-01-21T08:56:11.150Z,5.30
2023-01-21T08:58:39.901Z,5.17
2023-01-21T09:01:10.566Z,5.37
2023-01-21T09:03:39.869Z,6.33
2023-01-21T09:06:09.247Z,6.03
2023-01-21T09:08:37.907Z,5.50
2023-01-21T09:11:07.063Z,5.30
2023-01-21T09:13:38.187Z,4.67
2023-01-21T09:16:11.652Z,5.67
2023-01-21T09:18:40.861Z,4.70
2023-01-21T09:21:09.785Z,5.17
2023-01-21T09:23:40.054Z,5.17
2023-01-21T09:26:14.206Z,5.00
2023-01-21T09:28:44.960Z,5.70
2023-01-21T09:31:18.288Z,6.43
2023-01-21T09:33:48.331Z,5.20
2023-01-21T09:36:19.111Z,6.07
2023-01-21T09:38:49.387Z,5.57
2023-01-21T09:41:25.638Z,5.93
2023-01-21T09:44:06.829Z,4.83
2023-01-21T09:46:42.998Z,5.23
2023-01-21T09:49:17.176Z,5.10
2023-01-21T09:51:57.957Z,6.93
2023-01-21T09:54:29.590Z,5.03
2023-01-21T09:57:31.078Z,5.70
2023-01-21T10:00:14.577Z,5.20
2023-01-21T10:02:54.438Z,5.70
2023-01-21T10:05:45.684Z,5.60
2023-01-21T10:08:23.857Z,5.63
2023-01-21T10:10:55.526Z,5.33
2023-01-21T10:13:45.734Z,5.87
2023-01-21T10:16:22.397Z,5.43
2023-01-21T10:18:54.723Z,5.33
2023-01-21T10:21:33.435Z,5.03
2023-01-21T10:24:07.554Z,5.83
2023-01-21T10:26:36.617Z,5.30
2023-01-21T10:29:05.716Z,5.33
2023-01-21T10:31:40.365Z,4.93
2023-01-21T10:34:14.704Z,5.13
2023-01-21T10:37:01.372Z,5.37
2023-01-21T10:39:39.181Z,5.17
2023-01-21T10:42:20.930Z,5.67
2023-01-21T10:44:56.862Z,4.47
2023-01-21T10:47:32.425Z,4.07
2023-01-21T10:50:12.737Z,4.60
2023-01-21T10:52:47.425Z,5.53
2023-01-21T10:55:27.245Z,4.83
2023-01-21T10:58:01.823Z,4.50
2023-01-21T11:00:34.749Z,4.00
2023-01-21T11:03:12.050Z,4.10
2023-01-21T11:05:42.268Z,4.10
2023-01-21T11:08:19.421Z,5.03
2023-01-21T11:10:51.093Z,4.77
2023-01-21T11:13:20.063Z,5.90
2023-01-21T11:15:52.861Z,4.43
2023-01-21T11:18:34.385Z,5.23
2023-01-21T11:21:13.782Z,4.70
2023-01-21T11:23:42.593Z,4.97
2023-01-21T11:26:20.032Z,5.77
2023-01-21T11:28:48.761Z,4.70
2023-01-21T11:31:26.523Z,5.10
2023-01-21T11:33:57.095Z,5.30
2023-01-21T11:36:27.126Z,4.40
2023-01-21T11:39:03.195Z,4.37
2023-01-21T11:41:32.587Z,4.10
2023-01-21T11:44:11.284Z,4.30
2023-01-21T11:46:41.514Z,4.47
2023-01-21T11:49:25.634Z,3.97
2023-01-21T11:52:18.757Z,4.50
2023-01-21T11:54:48.692Z,3.67
2023-01-21T11:57:23.694Z,4.03
2023-01-21T11:59:53.363Z,3.97
2023-01-21T12:02:25.615Z,3.87
2023-01-21T12:04:57.725Z,3.90
2023-01-21T12:07:30.105Z,3.17
2023-01-21T12:10:05.392Z,4.70
2023-01-21T12:12:50.239Z,3.73
2023-01-21T12:15:34.581Z,4.80
2023-01-21T12:18:18.370Z,3.93
2023-01-21T12:20:55.244Z,4.00
2023-01-21T12:23:42.077Z,4.57
2023-01-21T12:26:35.105Z,4.90
2023-01-21T12:29:20.839Z,4.50
2023-01-21T12:31:54.692Z,4.27
2023-01-21T12:34:28.522Z,4.43
2023-01-21T12:37:01.454Z,4.57
2023-01-21T12:39:35.330Z,4.40
2023-01-21T12:42:10.489Z,4.87
2023-01-21T12:44:45.476Z,3.97
2023-01-21T12:47:24.228Z,3.77
2023-01-21T12:50:19.844Z,5.23
2023-01-21T12:53:16.270Z,4.90
2023-01-21T12:56:03.765Z,5.00
2023-01-21T12:58:36.056Z,4.80
2023-01-21T13:01:07.791Z,4.47
2023-01-21T13:03:47.117Z,3.97
2023-01-21T13:06:20.345Z,5.33
2023-01-21T13:08:56.988Z,5.37
2023-01-21T13:11:29.217Z,5.00
2023-01-21T13:14:20.955Z,4.47
2023-01-21T13:16:54.329Z,3.60
2023-01-21T13:19:23.732Z,4.90
2023-01-21T13:21:59.617Z,3.93
2023-01-21T13:24:33.935Z,4.30
2023-01-21T13:27:15.497Z,4.20
2023-01-21T13:29:52.356Z,4.43
2023-01-21T13:32:38.551Z,4.10
2023-01-21T13:35:32.903Z,3.73
2023-01-21T13:38:15.340Z,4.33
2023-01-21T13:40:52.803Z,4.20
2023-01-21T13:43:44.150Z,3.80
2023-01-21T13:46:26.170Z,4.30
2023-01-21T13:49:11.143Z,4.07
2023-01-21T13:51:52.790Z,3.90
2023-01-21T13:54:36.204Z,3.90
2023-01-21T13:57:31.883Z,3.60
2023-01-21T14:00:07.713Z,5.27
2023-01-21T14:02:47.959Z,4.40
2023-01-21T14:05:20.406Z,5.10
2023-01-21T14:07:56.211Z,4.17
2023-01-21T14:10:30.568Z,4.57
2023-01-21T14:13:41.533Z,4.77
2023-01-21T14:16:27.820Z,5.37
2023-01-21T14:19:22.695Z,3.83
2023-01-21T14:22:02.910Z,4.93
2023-01-21T14:24:46.625Z,4.93
2023-01-21T14:27:25.262Z,3.97
2023-01-21T14:29:58.589Z,6.40
2023-01-21T14:32:33.631Z,4.33
2023-01-21T14:35:16.891Z,4.47
2023-01-21T14:37:50.609Z,4.17
2023-01-21T14:40:27.760Z,4.63
2023-01-21T14:42:56.588Z,4.73
2023-01-21T14:45:52.633Z,4.33
2023-01-21T14:48:32.341Z,3.97
2023-01-21T14:51:14.025Z,3.40
2023-01-21T14:53:49.175Z,3.83
2023-01-21T14:56:22.737Z,4.60
2023-01-21T14:58:54.336Z,4.90
2023-01-21T15:01:35.872Z,4.13
2023-01-21T15:04:09.432Z,5.53
2023-01-21T15:06:41.176Z,4.67
2023-01-21T15:09:20.977Z,5.73
2023-01-21T15:11:53.445Z,5.37
2023-01-21T15:14:25.497Z,5.30
2023-01-21T15:16:54.390Z,6.07
2023-01-21T15:19:30.046Z,5.53
2023-01-21T15:22:19.365Z,4.30
2023-01-21T15:25:21.373Z,4.47
2023-01-21T15:28:43.540Z,4.90
2023-01-21T15:31:16.166Z,5.07
2023-01-21T15:33:48.268Z,5.40
2023-01-21T15:36:24.421Z,8.83
2023-01-21T15:38:55.649Z,4.77
2023-01-21T15:41:29.132Z,5.57
2023-01-21T15:44:08.436Z,4.97
2023-01-21T15:46:45.061Z,4.67
2023-01-21T15:49:37.203Z,4.50
2023-01-21T15:52:24.053Z,4.93
2023-01-21T15:55:00.358Z,5.07
2023-01-21T15:57:42.093Z,5.33
2023-01-21T16:00:37.351Z,5.27
2023-01-21T16:03:18.621Z,5.07
2023-01-21T16:05:56.826Z,4.40
2023-01-21T16:08:39.944Z,5.80
2023-01-21T16:11:24.318Z,5.00
2023-01-21T16:14:06.093Z,4.37
2023-01-21T16:16:47.638Z,5.27
2023-01-21T16:19:17.949Z,5.00
2023-01-21T16:21:50.189Z,4.67
2023-01-21T16:24:25.167Z,5.23
2023-01-21T16:26:53.988Z,5.07
2023-01-21T16:29:22.652Z,5.00
2023-01-21T16:31:52.795Z,4.17
2023-01-21T16:34:38.967Z,4.23
2023-01-21T16:37:08.112Z,4.47
2023-01-21T16:39:37.978Z,5.00
2023-01-21T16:42:08.259Z,4.97
2023-01-21T16:47:24.985Z,4.63
2023-01-21T16:49:54.464Z,4.93
2023-01-21T16:52:24.458Z,5.00
2023-01-21T16:54:55.977Z,5.00
2023-01-21T16:57:29.568Z,5.57
2023-01-21T16:59:58.968Z,4.77
2023-01-21T17:02:31.395Z,6.17
2023-01-21T17:05:02.159Z,5.47
2023-01-21T17:07:34.479Z,4.40
2023-01-21T17:10:07.937Z,4.73
2023-01-21T17:12:37.733Z,4.30
2023-01-21T17:15:17.420Z,4.77
2023-01-21T17:17:46.968Z,4.20
2023-01-21T17:20:37.302Z,4.10
2023-01-21T17:23:09.172Z,4.60
2023-01-21T17:25:39.093Z,4.30
2023-01-21T17:28:29.151Z,4.83
2023-01-21T17:31:10.530Z,4.87
2023-01-21T17:33:39.297Z,5.03
2023-01-21T17:36:10.177Z,4.30
2023-01-21T17:38:43.332Z,4.10
2023-01-21T17:41:23.787Z,4.53
2023-01-21T17:43:55.506Z,4.30
2023-01-21T17:46:24.697Z,5.27
2023-01-21T17:48:57.129Z,4.53
2023-01-21T17:51:28.237Z,5.07
2023-01-21T17:54:00.094Z,4.83
2023-01-21T17:56:49.856Z,5.87
2023-01-21T17:59:31.363Z,5.07
2023-01-21T18:02:00.235Z,5.23
2023-01-21T18:04:29.290Z,5.07
2023-01-21T18:06:58.126Z,5.00
2023-01-21T18:09:28.313Z,5.67
2023-01-21T18:11:59.382Z,5.87
2023-01-21T18:14:28.784Z,5.00
2023-01-21T18:16:57.292Z,4.57
2023-01-21T18:19:32.106Z,4.13
2023-01-21T18:22:01.235Z,4.97
2023-01-21T18:24:30.039Z,5.63
2023-01-21T18:27:01.655Z,5.77
2023-01-21T18:29:31.494Z,5.57
2023-01-21T18:32:00.106Z,6.50
2023-01-21T18:34:29.306Z,4.83
2023-01-21T18:37:00.690Z,5.03
2023-01-21T18:39:30.100Z,5.60
2023-01-21T18:42:00.330Z,6.10
2023-01-21T18:44:29.992Z,4.70
2023-01-21T18:46:58.553Z,5.93
2023-01-21T18:49:29.324Z,5.17
2023-01-21T18:51:57.825Z,6.10
2023-01-21T18:54:26.670Z,5.50
2023-01-21T18:56:55.360Z,6.10
2023-01-21T18:59:28.135Z,5.73
2023-01-21T19:01:59.448Z,5.27
2023-01-21T19:04:28.715Z,5.77
2023-01-21T19:07:02.011Z,5.53
2023-01-21T19:09:37.048Z,5.60
2023-01-21T19:12:10.997Z,4.93
2023-01-21T19:14:51.416Z,5.53
2023-01-21T19:17:35.992Z,4.93
2023-01-21T19:20:16.187Z,4.90
2023-01-21T19:22:45.358Z,6.13
2023-01-21T19:25:14.745Z,5.23
2023-01-21T19:27:45.028Z,4.70
2023-01-21T19:30:22.039Z,5.10
2023-01-21T19:32:51.899Z,5.50
2023-01-21T19:35:23.297Z,5.40
2023-01-21T19:37:51.996Z,5.83
2023-01-21T19:40:23.542Z,4.77
2023-01-21T19:42:52.933Z,4.70
2023-01-21T19:45:28.007Z,6.13
2023-01-21T19:47:59.646Z,5.47
2023-01-21T19:50:29.104Z,5.63
2023-01-21T19:52:57.921Z,5.27
2023-01-21T19:55:27.099Z,5.63
2023-01-21T19:57:58.679Z,5.50
2023-01-21T20:00:32.737Z,6.10
2023-01-21T20:03:02.018Z,5.17
2023-01-21T20:05:33.922Z,5.67
2023-01-21T20:08:03.568Z,5.87
2023-01-21T20:10:33.194Z,5.73
2023-01-21T20:13:01.909Z,5.57
2023-01-21T20:15:34.229Z,4.87
2023-01-21T20:18:04.410Z,6.13
2023-01-21T20:20:34.628Z,5.37
2023-01-21T20:23:03.292Z,5.50
2023-01-21T20:25:37.385Z,6.07
2023-01-21T20:28:17.673Z,5.00
2023-01-21T20:30:49.307Z,4.83
2023-01-21T20:33:20.334Z,5.63
2023-01-21T20:35:50.953Z,5.13
2023-01-21T20:38:25.378Z,5.90
2023-01-21T20:40:54.817Z,4.30
2023-01-21T20:43:23.441Z,6.27
2023-01-21T20:45:54.397Z,4.93
2023-01-21T20:48:27.225Z,5.13
2023-01-21T20:50:56.830Z,4.93
2023-01-21T20:53:25.762Z,4.77
2023-01-21T20:55:56.378Z,4.73
2023-01-21T20:58:25.926Z,4.70
2023-01-21T21:00:56.827Z,4.50
2023-01-21T21:03:25.712Z,5.20
2023-01-21T21:05:55.332Z,5.03
2023-01-21T21:08:24.085Z,5.70
2023-01-21T21:10:53.547Z,6.40
2023-01-21T21:13:22.354Z,6.13
2023-01-21T21:15:52.592Z,5.27
2023-01-21T21:18:22.798Z,5.10
2023-01-21T21:20:53.696Z,6.47
2023-01-21T21:23:22.519Z,5.70
2023-01-21T21:25:52.211Z,5.87
2023-01-21T21:28:21.517Z,6.30
2023-01-21T21:30:51.326Z,5.70
2023-01-21T21:33:22.983Z,5.53
2023-01-21T21:35:52.226Z,5.03
2023-01-21T21:38:22.740Z,4.67
2023-01-21T21:40:53.303Z,6.30
2023-01-21T21:43:35.730Z,5.60
2023-01-21T21:46:25.794Z,5.70
2023-01-21T21:48:55.997Z,4.83
2023-01-21T21:51:25.584Z,6.13
2023-01-21T21:53:54.531Z,5.50
2023-01-21T21:56:24.079Z,6.13
2023-01-21T21:58:53.184Z,5.00
2023-01-21T22:01:24.015Z,5.30
2023-01-21T22:03:53.712Z,5.43
2023-01-21T22:06:24.423Z,5.70
2023-01-21T22:08:55.506Z,4.90
2023-01-21T22:11:24.423Z,5.57
2023-01-21T22:13:54.555Z,5.93
2023-01-21T22:16:25.339Z,6.13
2023-01-21T22:18:55.337Z,4.90
2023-01-21T22:21:27.183Z,4.90
2023-01-21T22:23:56.786Z,6.37
2023-01-21T22:26:27.454Z,4.73
2023-01-21T22:28:56.386Z,5.50
2023-01-21T22:31:27.336Z,5.30
2023-01-21T22:33:56.769Z,4.93
2023-01-21T22:36:29.554Z,5.20
2023-01-21T22:38:58.399Z,6.40
2023-01-21T22:41:27.798Z,5.57
2023-01-21T22:43:56.562Z,5.53
2023-01-21T22:46:27.143Z,6.03
2023-01-21T22:48:56.213Z,5.43
2023-01-21T22:51:26.193Z,7.83
2023-01-21T22:53:55.558Z,7.03
2023-01-21T22:56:44.873Z,5.10
2023-01-21T22:59:17.343Z,5.67
2023-01-21T23:01:45.728Z,4.80
2023-01-21T23:04:14.874Z,5.00
2023-01-21T23:06:44.981Z,5.53
2023-01-21T23:09:15.325Z,5.27
2023-01-21T23:11:45.086Z,4.83
2023-01-21T23:14:13.932Z,5.80
2023-01-21T23:16:42.349Z,4.53
2023-01-21T23:19:11.227Z,5.20
2023-01-21T23:21:40.088Z,5.00
2023-01-21T23:24:10.328Z,5.53
2023-01-21T23:26:38.845Z,4.93
2023-01-21T23:29:07.526Z,9.07
2023-01-21T23:31:36.351Z,5.77
2023-01-21T23:34:05.102Z,5.57
2023-01-21T23:36:33.499Z,6.47
2023-01-21T23:39:02.171Z,5.33
2023-01-21T23:41:31.895Z,5.33
2023-01-21T23:44:01.479Z,5.67
2023-01-21T23:46:30.055Z,4.80
2023-01-21T23:48:58.802Z,4.80
2023-01-21T23:51:27.641Z,5.73
2023-01-21T23:53:57.876Z,4.97
2023-01-21T23:56:27.301Z,5.20
2023-01-21T23:58:57.720Z,5.23
